Terminal Aerodrome Forecast
Issued by NWS

Current Version | Previous Version | Text Only | Print | Product List | Glossary On
Versions: 1 2 3 4 5 6 7 8 9 10 11 12
000
FTUS45 KPIH 150500
TAFSUN
TAF
KSUN 150520Z 1506/1606 30006KT P6SM SCT090
     FM151800 14006KT P6SM FEW080
     FM152100 24010KT P6SM FEW080
     FM160300 30006KT P6SM FEW080
      AMD LTD TO CLD VIS AND WIND TIL 151300=

USA.gov is the U.S. government's official web portal to all federal, state and local government web resources and services.